sensor_id;sensor_type;location;lat;lon;timestamp;P1;durP1;ratioP1;P2;durP2;ratioP2
16832;SDS011;8533;48.426;10.868;2023-03-08T00:01:53;9.47;;;4.67;;
16832;SDS011;8533;48.426;10.868;2023-03-08T00:04:20;12.10;;;4.87;;
16832;SDS011;8533;48.426;10.868;2023-03-08T00:06:48;10.07;;;4.50;;
16832;SDS011;8533;48.426;10.868;2023-03-08T00:09:15;8.00;;;4.50;;
16832;SDS011;8533;48.426;10.868;2023-03-08T00:11:43;9.60;;;4.70;;
16832;SDS011;8533;48.426;10.868;2023-03-08T00:14:10;11.67;;;4.90;;
16832;SDS011;8533;48.426;10.868;2023-03-08T00:16:37;8.70;;;4.87;;
16832;SDS011;8533;48.426;10.868;2023-03-08T00:19:05;8.20;;;4.23;;
16832;SDS011;8533;48.426;10.868;2023-03-08T00:21:32;11.03;;;4.93;;
16832;SDS011;8533;48.426;10.868;2023-03-08T00:24:00;7.17;;;4.67;;
16832;SDS011;8533;48.426;10.868;2023-03-08T00:26:27;7.33;;;4.47;;
16832;SDS011;8533;48.426;10.868;2023-03-08T00:28:54;7.67;;;4.67;;
16832;SDS011;8533;48.426;10.868;2023-03-08T00:31:22;9.70;;;4.90;;
16832;SDS011;8533;48.426;10.868;2023-03-08T00:33:53;11.50;;;5.10;;
16832;SDS011;8533;48.426;10.868;2023-03-08T00:36:20;8.77;;;4.43;;
16832;SDS011;8533;48.426;10.868;2023-03-08T00:38:48;9.17;;;4.77;;
16832;SDS011;8533;48.426;10.868;2023-03-08T00:41:17;10.60;;;5.07;;
16832;SDS011;8533;48.426;10.868;2023-03-08T00:43:44;11.27;;;5.10;;
16832;SDS011;8533;48.426;10.868;2023-03-08T00:46:12;9.20;;;4.90;;
16832;SDS011;8533;48.426;10.868;2023-03-08T00:48:41;8.60;;;4.83;;
16832;SDS011;8533;48.426;10.868;2023-03-08T00:51:11;11.13;;;4.73;;
16832;SDS011;8533;48.426;10.868;2023-03-08T00:53:40;8.13;;;4.67;;
16832;SDS011;8533;48.426;10.868;2023-03-08T00:56:07;8.00;;;4.80;;
16832;SDS011;8533;48.426;10.868;2023-03-08T00:58:35;10.63;;;4.63;;
16832;SDS011;8533;48.426;10.868;2023-03-08T01:01:04;13.40;;;4.93;;
16832;SDS011;8533;48.426;10.868;2023-03-08T01:03:33;8.87;;;5.10;;
16832;SDS011;8533;48.426;10.868;2023-03-08T01:06:04;8.57;;;4.80;;
16832;SDS011;8533;48.426;10.868;2023-03-08T01:08:34;10.57;;;4.70;;
16832;SDS011;8533;48.426;10.868;2023-03-08T01:11:04;9.10;;;4.70;;
16832;SDS011;8533;48.426;10.868;2023-03-08T01:13:32;9.97;;;5.27;;
16832;SDS011;8533;48.426;10.868;2023-03-08T01:16:01;9.40;;;5.00;;
16832;SDS011;8533;48.426;10.868;2023-03-08T01:18:28;11.03;;;4.60;;
16832;SDS011;8533;48.426;10.868;2023-03-08T01:21:00;8.03;;;4.37;;
16832;SDS011;8533;48.426;10.868;2023-03-08T01:23:29;7.67;;;4.20;;
16832;SDS011;8533;48.426;10.868;2023-03-08T01:26:00;10.33;;;4.20;;
16832;SDS011;8533;48.426;10.868;2023-03-08T01:28:30;9.50;;;4.80;;
16832;SDS011;8533;48.426;10.868;2023-03-08T01:31:07;7.80;;;5.23;;
16832;SDS011;8533;48.426;10.868;2023-03-08T01:33:31;7.60;;;4.20;;
16832;SDS011;8533;48.426;10.868;2023-03-08T01:36:01;9.87;;;5.03;;
16832;SDS011;8533;48.426;10.868;2023-03-08T01:38:29;7.97;;;4.53;;
16832;SDS011;8533;48.426;10.868;2023-03-08T01:40:58;9.10;;;4.80;;
16832;SDS011;8533;48.426;10.868;2023-03-08T01:43:27;9.60;;;5.00;;
16832;SDS011;8533;48.426;10.868;2023-03-08T01:46:16;12.27;;;5.07;;
16832;SDS011;8533;48.426;10.868;2023-03-08T01:51:43;9.30;;;4.67;;
16832;SDS011;8533;48.426;10.868;2023-03-08T01:54:14;7.47;;;4.00;;
16832;SDS011;8533;48.426;10.868;2023-03-08T01:56:44;11.13;;;5.20;;
16832;SDS011;8533;48.426;10.868;2023-03-08T01:59:14;8.27;;;4.67;;
16832;SDS011;8533;48.426;10.868;2023-03-08T02:01:43;7.90;;;4.33;;
16832;SDS011;8533;48.426;10.868;2023-03-08T02:04:11;9.17;;;4.40;;
16832;SDS011;8533;48.426;10.868;2023-03-08T02:06:38;12.40;;;4.70;;
16832;SDS011;8533;48.426;10.868;2023-03-08T02:09:08;6.33;;;3.77;;
16832;SDS011;8533;48.426;10.868;2023-03-08T02:11:36;9.83;;;4.57;;
16832;SDS011;8533;48.426;10.868;2023-03-08T02:14:06;10.73;;;5.47;;
16832;SDS011;8533;48.426;10.868;2023-03-08T02:16:33;10.00;;;5.20;;
16832;SDS011;8533;48.426;10.868;2023-03-08T02:19:02;8.47;;;4.50;;
16832;SDS011;8533;48.426;10.868;2023-03-08T02:21:32;7.47;;;4.07;;
16832;SDS011;8533;48.426;10.868;2023-03-08T02:24:06;9.37;;;4.60;;
16832;SDS011;8533;48.426;10.868;2023-03-08T02:26:44;10.30;;;5.20;;
16832;SDS011;8533;48.426;10.868;2023-03-08T02:29:12;9.57;;;4.80;;
16832;SDS011;8533;48.426;10.868;2023-03-08T02:31:39;8.70;;;4.97;;
16832;SDS011;8533;48.426;10.868;2023-03-08T02:34:07;10.43;;;4.80;;
16832;SDS011;8533;48.426;10.868;2023-03-08T02:36:34;7.80;;;4.50;;
16832;SDS011;8533;48.426;10.868;2023-03-08T02:39:02;11.17;;;5.23;;
16832;SDS011;8533;48.426;10.868;2023-03-08T02:41:29;7.00;;;4.67;;
16832;SDS011;8533;48.426;10.868;2023-03-08T02:43:57;10.00;;;4.97;;
16832;SDS011;8533;48.426;10.868;2023-03-08T02:46:24;9.33;;;4.90;;
16832;SDS011;8533;48.426;10.868;2023-03-08T02:48:52;11.47;;;4.97;;
16832;SDS011;8533;48.426;10.868;2023-03-08T02:51:19;8.40;;;4.70;;
16832;SDS011;8533;48.426;10.868;2023-03-08T02:53:46;9.47;;;5.03;;
16832;SDS011;8533;48.426;10.868;2023-03-08T02:56:14;11.37;;;4.47;;
16832;SDS011;8533;48.426;10.868;2023-03-08T02:58:42;9.70;;;5.07;;
16832;SDS011;8533;48.426;10.868;2023-03-08T03:01:21;10.37;;;5.17;;
16832;SDS011;8533;48.426;10.868;2023-03-08T03:06:16;9.80;;;5.07;;
16832;SDS011;8533;48.426;10.868;2023-03-08T03:08:45;11.60;;;5.17;;
16832;SDS011;8533;48.426;10.868;2023-03-08T03:11:14;11.37;;;5.43;;
16832;SDS011;8533;48.426;10.868;2023-03-08T03:13:43;11.90;;;5.73;;
16832;SDS011;8533;48.426;10.868;2023-03-08T03:16:12;9.77;;;5.27;;
16832;SDS011;8533;48.426;10.868;2023-03-08T03:18:41;11.57;;;5.53;;
16832;SDS011;8533;48.426;10.868;2023-03-08T03:21:10;11.13;;;5.73;;
16832;SDS011;8533;48.426;10.868;2023-03-08T03:23:39;12.50;;;5.67;;
16832;SDS011;8533;48.426;10.868;2023-03-08T03:26:08;10.87;;;5.93;;
16832;SDS011;8533;48.426;10.868;2023-03-08T03:28:37;11.63;;;5.57;;
16832;SDS011;8533;48.426;10.868;2023-03-08T03:31:16;13.33;;;5.47;;
16832;SDS011;8533;48.426;10.868;2023-03-08T03:36:10;11.70;;;5.63;;
16832;SDS011;8533;48.426;10.868;2023-03-08T03:38:39;10.07;;;5.33;;
16832;SDS011;8533;48.426;10.868;2023-03-08T03:41:08;11.83;;;5.27;;
16832;SDS011;8533;48.426;10.868;2023-03-08T03:43:38;10.10;;;5.50;;
16832;SDS011;8533;48.426;10.868;2023-03-08T03:46:07;15.53;;;6.33;;
16832;SDS011;8533;48.426;10.868;2023-03-08T03:48:36;14.17;;;6.77;;
16832;SDS011;8533;48.426;10.868;2023-03-08T03:51:04;14.53;;;5.50;;
16832;SDS011;8533;48.426;10.868;2023-03-08T03:53:34;10.87;;;5.57;;
16832;SDS011;8533;48.426;10.868;2023-03-08T03:56:09;16.20;;;6.27;;
16832;SDS011;8533;48.426;10.868;2023-03-08T04:01:22;11.90;;;5.70;;
16832;SDS011;8533;48.426;10.868;2023-03-08T04:06:18;11.03;;;6.03;;
16832;SDS011;8533;48.426;10.868;2023-03-08T04:08:47;11.03;;;5.80;;
16832;SDS011;8533;48.426;10.868;2023-03-08T04:11:18;12.20;;;6.07;;
16832;SDS011;8533;48.426;10.868;2023-03-08T04:13:46;14.30;;;6.40;;
16832;SDS011;8533;48.426;10.868;2023-03-08T04:16:18;14.93;;;6.77;;
16832;SDS011;8533;48.426;10.868;2023-03-08T04:18:47;13.00;;;6.57;;
16832;SDS011;8533;48.426;10.868;2023-03-08T04:21:16;12.93;;;6.57;;
16832;SDS011;8533;48.426;10.868;2023-03-08T04:23:44;14.27;;;6.83;;
16832;SDS011;8533;48.426;10.868;2023-03-08T04:26:11;13.87;;;6.70;;
16832;SDS011;8533;48.426;10.868;2023-03-08T04:28:39;16.57;;;7.10;;
16832;SDS011;8533;48.426;10.868;2023-03-08T04:31:14;13.63;;;7.27;;
16832;SDS011;8533;48.426;10.868;2023-03-08T04:33:41;16.23;;;7.53;;
16832;SDS011;8533;48.426;10.868;2023-03-08T04:36:10;14.97;;;7.17;;
16832;SDS011;8533;48.426;10.868;2023-03-08T04:38:41;13.90;;;6.47;;
16832;SDS011;8533;48.426;10.868;2023-03-08T04:41:10;16.80;;;7.43;;
16832;SDS011;8533;48.426;10.868;2023-03-08T04:43:38;11.97;;;6.77;;
16832;SDS011;8533;48.426;10.868;2023-03-08T04:48:44;17.43;;;7.40;;
16832;SDS011;8533;48.426;10.868;2023-03-08T04:51:13;12.60;;;6.07;;
16832;SDS011;8533;48.426;10.868;2023-03-08T04:53:41;13.13;;;6.97;;
16832;SDS011;8533;48.426;10.868;2023-03-08T04:56:10;16.03;;;6.80;;
16832;SDS011;8533;48.426;10.868;2023-03-08T04:58:39;17.33;;;7.23;;
16832;SDS011;8533;48.426;10.868;2023-03-08T05:01:10;18.43;;;7.40;;
16832;SDS011;8533;48.426;10.868;2023-03-08T05:03:39;19.67;;;7.97;;
16832;SDS011;8533;48.426;10.868;2023-03-08T05:06:07;16.37;;;7.13;;
16832;SDS011;8533;48.426;10.868;2023-03-08T05:08:35;16.23;;;7.07;;
16832;SDS011;8533;48.426;10.868;2023-03-08T05:11:03;14.23;;;7.13;;
16832;SDS011;8533;48.426;10.868;2023-03-08T05:13:33;15.30;;;7.17;;
16832;SDS011;8533;48.426;10.868;2023-03-08T05:16:02;18.00;;;7.40;;
16832;SDS011;8533;48.426;10.868;2023-03-08T05:18:31;16.67;;;7.37;;
16832;SDS011;8533;48.426;10.868;2023-03-08T05:21:00;13.80;;;7.37;;
16832;SDS011;8533;48.426;10.868;2023-03-08T05:23:29;14.87;;;6.83;;
16832;SDS011;8533;48.426;10.868;2023-03-08T05:25:58;14.33;;;6.90;;
16832;SDS011;8533;48.426;10.868;2023-03-08T05:28:28;17.30;;;8.43;;
16832;SDS011;8533;48.426;10.868;2023-03-08T05:31:03;18.73;;;7.97;;
16832;SDS011;8533;48.426;10.868;2023-03-08T05:36:02;14.03;;;7.83;;
16832;SDS011;8533;48.426;10.868;2023-03-08T05:38:31;16.37;;;7.77;;
16832;SDS011;8533;48.426;10.868;2023-03-08T05:41:00;18.43;;;8.23;;
16832;SDS011;8533;48.426;10.868;2023-03-08T05:43:29;21.20;;;8.20;;
16832;SDS011;8533;48.426;10.868;2023-03-08T05:45:57;13.77;;;7.43;;
16832;SDS011;8533;48.426;10.868;2023-03-08T05:48:27;17.17;;;8.00;;
16832;SDS011;8533;48.426;10.868;2023-03-08T05:50:56;19.53;;;8.33;;
16832;SDS011;8533;48.426;10.868;2023-03-08T05:53:24;16.10;;;7.70;;
16832;SDS011;8533;48.426;10.868;2023-03-08T05:55:51;20.70;;;7.33;;
16832;SDS011;8533;48.426;10.868;2023-03-08T05:58:20;18.73;;;8.30;;
16832;SDS011;8533;48.426;10.868;2023-03-08T06:00:47;15.43;;;8.00;;
16832;SDS011;8533;48.426;10.868;2023-03-08T06:03:14;18.67;;;8.40;;
16832;SDS011;8533;48.426;10.868;2023-03-08T06:05:42;22.03;;;8.33;;
16832;SDS011;8533;48.426;10.868;2023-03-08T06:08:09;16.80;;;8.63;;
16832;SDS011;8533;48.426;10.868;2023-03-08T06:10:37;17.30;;;8.40;;
16832;SDS011;8533;48.426;10.868;2023-03-08T06:13:04;16.57;;;7.77;;
16832;SDS011;8533;48.426;10.868;2023-03-08T06:15:31;20.00;;;7.87;;
16832;SDS011;8533;48.426;10.868;2023-03-08T06:17:59;18.73;;;8.20;;
16832;SDS011;8533;48.426;10.868;2023-03-08T06:20:26;15.53;;;8.20;;
16832;SDS011;8533;48.426;10.868;2023-03-08T06:22:54;15.60;;;7.63;;
16832;SDS011;8533;48.426;10.868;2023-03-08T06:25:21;16.60;;;7.53;;
16832;SDS011;8533;48.426;10.868;2023-03-08T06:27:48;20.00;;;7.80;;
16832;SDS011;8533;48.426;10.868;2023-03-08T06:30:16;17.37;;;7.80;;
16832;SDS011;8533;48.426;10.868;2023-03-08T06:32:43;14.83;;;7.10;;
16832;SDS011;8533;48.426;10.868;2023-03-08T06:35:11;19.93;;;7.77;;
16832;SDS011;8533;48.426;10.868;2023-03-08T06:37:39;19.17;;;7.43;;
16832;SDS011;8533;48.426;10.868;2023-03-08T06:40:07;16.23;;;8.07;;
16832;SDS011;8533;48.426;10.868;2023-03-08T06:42:36;16.00;;;8.13;;
16832;SDS011;8533;48.426;10.868;2023-03-08T06:45:03;20.80;;;8.37;;
16832;SDS011;8533;48.426;10.868;2023-03-08T06:47:32;25.30;;;9.40;;
16832;SDS011;8533;48.426;10.868;2023-03-08T06:49:59;16.93;;;8.27;;
16832;SDS011;8533;48.426;10.868;2023-03-08T06:52:27;18.20;;;8.30;;
16832;SDS011;8533;48.426;10.868;2023-03-08T06:54:56;17.30;;;7.60;;
16832;SDS011;8533;48.426;10.868;2023-03-08T06:57:24;19.23;;;8.13;;
16832;SDS011;8533;48.426;10.868;2023-03-08T06:59:51;17.47;;;8.00;;
16832;SDS011;8533;48.426;10.868;2023-03-08T07:02:18;17.47;;;8.33;;
16832;SDS011;8533;48.426;10.868;2023-03-08T07:04:46;14.50;;;6.80;;
16832;SDS011;8533;48.426;10.868;2023-03-08T07:07:13;14.50;;;7.80;;
16832;SDS011;8533;48.426;10.868;2023-03-08T07:09:41;17.43;;;8.73;;
16832;SDS011;8533;48.426;10.868;2023-03-08T07:12:08;17.27;;;8.73;;
16832;SDS011;8533;48.426;10.868;2023-03-08T07:14:36;12.30;;;7.03;;
16832;SDS011;8533;48.426;10.868;2023-03-08T07:17:03;19.47;;;8.73;;
16832;SDS011;8533;48.426;10.868;2023-03-08T07:19:31;15.87;;;8.07;;
16832;SDS011;8533;48.426;10.868;2023-03-08T07:21:58;19.63;;;8.10;;
16832;SDS011;8533;48.426;10.868;2023-03-08T07:24:25;17.63;;;8.50;;
16832;SDS011;8533;48.426;10.868;2023-03-08T07:26:53;14.73;;;8.07;;
16832;SDS011;8533;48.426;10.868;2023-03-08T07:29:20;17.67;;;8.37;;
16832;SDS011;8533;48.426;10.868;2023-03-08T07:31:48;15.13;;;8.33;;
16832;SDS011;8533;48.426;10.868;2023-03-08T07:34:15;15.77;;;8.20;;
16832;SDS011;8533;48.426;10.868;2023-03-08T07:36:42;17.17;;;7.83;;
16832;SDS011;8533;48.426;10.868;2023-03-08T07:39:10;18.37;;;7.87;;
16832;SDS011;8533;48.426;10.868;2023-03-08T07:41:37;18.87;;;8.50;;
16832;SDS011;8533;48.426;10.868;2023-03-08T07:44:05;17.10;;;9.07;;
16832;SDS011;8533;48.426;10.868;2023-03-08T07:46:32;17.87;;;8.37;;
16832;SDS011;8533;48.426;10.868;2023-03-08T07:49:00;17.57;;;7.93;;
16832;SDS011;8533;48.426;10.868;2023-03-08T07:51:27;14.53;;;8.20;;
16832;SDS011;8533;48.426;10.868;2023-03-08T07:53:55;15.90;;;7.83;;
16832;SDS011;8533;48.426;10.868;2023-03-08T07:56:22;17.33;;;9.10;;
16832;SDS011;8533;48.426;10.868;2023-03-08T07:58:49;15.93;;;8.93;;
16832;SDS011;8533;48.426;10.868;2023-03-08T08:01:17;20.63;;;9.50;;
16832;SDS011;8533;48.426;10.868;2023-03-08T08:03:44;19.47;;;8.90;;
16832;SDS011;8533;48.426;10.868;2023-03-08T08:06:12;19.80;;;9.70;;
16832;SDS011;8533;48.426;10.868;2023-03-08T08:08:40;19.30;;;8.57;;
16832;SDS011;8533;48.426;10.868;2023-03-08T08:11:11;16.93;;;8.57;;
16832;SDS011;8533;48.426;10.868;2023-03-08T08:13:40;18.57;;;8.93;;
16832;SDS011;8533;48.426;10.868;2023-03-08T08:16:08;18.73;;;7.67;;
16832;SDS011;8533;48.426;10.868;2023-03-08T08:18:37;17.93;;;8.57;;
16832;SDS011;8533;48.426;10.868;2023-03-08T08:21:06;25.57;;;9.23;;
16832;SDS011;8533;48.426;10.868;2023-03-08T08:23:38;15.90;;;8.60;;
16832;SDS011;8533;48.426;10.868;2023-03-08T08:26:08;18.97;;;9.43;;
16832;SDS011;8533;48.426;10.868;2023-03-08T08:28:39;16.27;;;8.40;;
16832;SDS011;8533;48.426;10.868;2023-03-08T08:31:08;13.53;;;7.57;;
16832;SDS011;8533;48.426;10.868;2023-03-08T08:33:38;19.53;;;10.33;;
16832;SDS011;8533;48.426;10.868;2023-03-08T08:36:07;20.73;;;8.87;;
16832;SDS011;8533;48.426;10.868;2023-03-08T08:38:37;19.43;;;9.03;;
16832;SDS011;8533;48.426;10.868;2023-03-08T08:41:05;17.67;;;9.27;;
16832;SDS011;8533;48.426;10.868;2023-03-08T08:43:34;16.17;;;9.10;;
16832;SDS011;8533;48.426;10.868;2023-03-08T08:46:03;24.00;;;9.50;;
16832;SDS011;8533;48.426;10.868;2023-03-08T08:48:31;18.57;;;9.23;;
16832;SDS011;8533;48.426;10.868;2023-03-08T08:50:59;20.33;;;9.50;;
16832;SDS011;8533;48.426;10.868;2023-03-08T08:53:27;16.97;;;8.53;;
16832;SDS011;8533;48.426;10.868;2023-03-08T08:55:54;13.80;;;7.83;;
16832;SDS011;8533;48.426;10.868;2023-03-08T08:58:23;22.30;;;8.53;;
16832;SDS011;8533;48.426;10.868;2023-03-08T09:00:51;20.70;;;8.23;;
16832;SDS011;8533;48.426;10.868;2023-03-08T09:03:18;17.70;;;8.97;;
16832;SDS011;8533;48.426;10.868;2023-03-08T09:05:45;15.93;;;8.40;;
16832;SDS011;8533;48.426;10.868;2023-03-08T09:08:14;16.20;;;7.63;;
16832;SDS011;8533;48.426;10.868;2023-03-08T09:10:41;20.17;;;8.83;;
16832;SDS011;8533;48.426;10.868;2023-03-08T09:13:09;19.75;;;9.50;;
16832;SDS011;8533;48.426;10.868;2023-03-08T09:15:37;19.17;;;8.70;;
16832;SDS011;8533;48.426;10.868;2023-03-08T09:18:06;15.07;;;8.60;;
16832;SDS011;8533;48.426;10.868;2023-03-08T09:20:33;21.10;;;9.30;;
16832;SDS011;8533;48.426;10.868;2023-03-08T09:23:01;20.90;;;9.37;;
16832;SDS011;8533;48.426;10.868;2023-03-08T09:25:28;16.67;;;8.00;;
16832;SDS011;8533;48.426;10.868;2023-03-08T09:27:56;17.27;;;7.90;;
16832;SDS011;8533;48.426;10.868;2023-03-08T09:30:24;16.80;;;8.87;;
16832;SDS011;8533;48.426;10.868;2023-03-08T09:32:51;19.70;;;9.37;;
16832;SDS011;8533;48.426;10.868;2023-03-08T09:35:19;17.60;;;8.03;;
16832;SDS011;8533;48.426;10.868;2023-03-08T09:37:47;13.53;;;8.00;;
16832;SDS011;8533;48.426;10.868;2023-03-08T09:40:19;18.17;;;9.00;;
16832;SDS011;8533;48.426;10.868;2023-03-08T09:42:48;27.90;;;11.97;;
16832;SDS011;8533;48.426;10.868;2023-03-08T09:45:20;18.12;;;9.70;;
16832;SDS011;8533;48.426;10.868;2023-03-08T09:53:15;19.80;;;9.30;;
16832;SDS011;8533;48.426;10.868;2023-03-08T09:55:57;18.20;;;8.90;;
16832;SDS011;8533;48.426;10.868;2023-03-08T10:01:09;19.07;;;9.53;;
16832;SDS011;8533;48.426;10.868;2023-03-08T10:08:56;16.63;;;9.00;;
16832;SDS011;8533;48.426;10.868;2023-03-08T10:11:30;23.22;;;11.10;;
16832;SDS011;8533;48.426;10.868;2023-03-08T10:13:55;17.37;;;8.83;;
16832;SDS011;8533;48.426;10.868;2023-03-08T10:16:26;19.00;;;9.27;;
16832;SDS011;8533;48.426;10.868;2023-03-08T10:24:08;18.03;;;9.23;;
16832;SDS011;8533;48.426;10.868;2023-03-08T10:29:01;18.67;;;9.20;;
16832;SDS011;8533;48.426;10.868;2023-03-08T10:31:30;20.20;;;9.97;;
16832;SDS011;8533;48.426;10.868;2023-03-08T10:34:18;21.53;;;10.70;;
16832;SDS011;8533;48.426;10.868;2023-03-08T10:37:00;17.15;;;8.30;;
16832;SDS011;8533;48.426;10.868;2023-03-08T10:39:30;19.50;;;8.20;;
16832;SDS011;8533;48.426;10.868;2023-03-08T10:41:58;17.27;;;8.00;;
16832;SDS011;8533;48.426;10.868;2023-03-08T10:46:58;18.40;;;8.53;;
16832;SDS011;8533;48.426;10.868;2023-03-08T10:49:29;17.10;;;8.60;;
16832;SDS011;8533;48.426;10.868;2023-03-08T10:51:57;18.40;;;8.43;;
16832;SDS011;8533;48.426;10.868;2023-03-08T10:54:26;14.83;;;7.17;;
16832;SDS011;8533;48.426;10.868;2023-03-08T10:56:55;14.70;;;8.13;;
16832;SDS011;8533;48.426;10.868;2023-03-08T10:59:32;13.60;;;7.40;;
16832;SDS011;8533;48.426;10.868;2023-03-08T11:04:30;14.57;;;7.77;;
16832;SDS011;8533;48.426;10.868;2023-03-08T11:06:57;15.63;;;7.70;;
16832;SDS011;8533;48.426;10.868;2023-03-08T11:09:31;16.23;;;7.30;;
16832;SDS011;8533;48.426;10.868;2023-03-08T11:11:59;15.83;;;7.70;;
16832;SDS011;8533;48.426;10.868;2023-03-08T11:14:27;12.50;;;6.70;;
16832;SDS011;8533;48.426;10.868;2023-03-08T11:17:12;19.00;;;9.30;;
16832;SDS011;8533;48.426;10.868;2023-03-08T11:19:41;16.90;;;7.90;;
16832;SDS011;8533;48.426;10.868;2023-03-08T11:36:30;16.40;;;7.43;;
16832;SDS011;8533;48.426;10.868;2023-03-08T11:44:35;15.23;;;7.70;;
16832;SDS011;8533;48.426;10.868;2023-03-08T11:49:55;15.43;;;8.17;;
16832;SDS011;8533;48.426;10.868;2023-03-08T12:00:58;12.95;;;6.30;;
16832;SDS011;8533;48.426;10.868;2023-03-08T12:03:30;14.67;;;6.60;;
16832;SDS011;8533;48.426;10.868;2023-03-08T12:06:05;15.73;;;6.70;;
16832;SDS011;8533;48.426;10.868;2023-03-08T12:11:26;10.50;;;5.27;;
16832;SDS011;8533;48.426;10.868;2023-03-08T12:13:56;7.87;;;4.47;;
16832;SDS011;8533;48.426;10.868;2023-03-08T12:16:25;6.70;;;3.23;;
16832;SDS011;8533;48.426;10.868;2023-03-08T12:21:45;6.15;;;3.55;;
16832;SDS011;8533;48.426;10.868;2023-03-08T12:24:30;6.22;;;3.50;;
16832;SDS011;8533;48.426;10.868;2023-03-08T12:27:24;5.70;;;4.00;;
16832;SDS011;8533;48.426;10.868;2023-03-08T12:30:10;5.62;;;3.27;;
16832;SDS011;8533;48.426;10.868;2023-03-08T12:32:40;6.85;;;3.30;;
16832;SDS011;8533;48.426;10.868;2023-03-08T12:38:00;5.93;;;2.60;;
16832;SDS011;8533;48.426;10.868;2023-03-08T12:43:10;5.20;;;3.53;;
16832;SDS011;8533;48.426;10.868;2023-03-08T12:51:03;3.80;;;2.60;;
16832;SDS011;8533;48.426;10.868;2023-03-08T13:01:28;4.40;;;2.80;;
16832;SDS011;8533;48.426;10.868;2023-03-08T13:09:29;6.67;;;3.53;;
16832;SDS011;8533;48.426;10.868;2023-03-08T13:20:07;4.40;;;2.90;;
16832;SDS011;8533;48.426;10.868;2023-03-08T13:22:41;4.20;;;2.40;;
16832;SDS011;8533;48.426;10.868;2023-03-08T13:25:29;3.07;;;2.30;;
16832;SDS011;8533;48.426;10.868;2023-03-08T13:28:07;5.60;;;2.70;;
16832;SDS011;8533;48.426;10.868;2023-03-08T13:30:45;2.50;;;2.00;;
16832;SDS011;8533;48.426;10.868;2023-03-08T13:35:58;9.23;;;2.20;;
16832;SDS011;8533;48.426;10.868;2023-03-08T13:38:29;5.35;;;2.25;;
16832;SDS011;8533;48.426;10.868;2023-03-08T13:40:59;2.43;;;2.10;;
16832;SDS011;8533;48.426;10.868;2023-03-08T13:43:27;4.00;;;1.97;;
16832;SDS011;8533;48.426;10.868;2023-03-08T13:45:57;2.37;;;1.80;;
16832;SDS011;8533;48.426;10.868;2023-03-08T13:48:29;2.17;;;1.80;;
16832;SDS011;8533;48.426;10.868;2023-03-08T13:50:59;3.20;;;1.90;;
16832;SDS011;8533;48.426;10.868;2023-03-08T13:53:31;3.33;;;2.10;;
16832;SDS011;8533;48.426;10.868;2023-03-08T13:56:00;5.57;;;2.07;;
16832;SDS011;8533;48.426;10.868;2023-03-08T13:58:34;3.80;;;1.93;;
16832;SDS011;8533;48.426;10.868;2023-03-08T14:01:14;2.20;;;2.00;;
16832;SDS011;8533;48.426;10.868;2023-03-08T14:06:18;2.43;;;1.90;;
16832;SDS011;8533;48.426;10.868;2023-03-08T14:11:15;2.40;;;1.87;;
16832;SDS011;8533;48.426;10.868;2023-03-08T14:13:45;2.60;;;1.70;;
16832;SDS011;8533;48.426;10.868;2023-03-08T14:16:23;3.10;;;1.90;;
16832;SDS011;8533;48.426;10.868;2023-03-08T14:19:07;1.70;;;1.60;;
16832;SDS011;8533;48.426;10.868;2023-03-08T14:24:03;1.60;;;1.50;;
16832;SDS011;8533;48.426;10.868;2023-03-08T14:26:32;1.53;;;1.40;;
16832;SDS011;8533;48.426;10.868;2023-03-08T14:29:13;1.90;;;1.50;;
16832;SDS011;8533;48.426;10.868;2023-03-08T14:36:57;1.50;;;1.40;;
16832;SDS011;8533;48.426;10.868;2023-03-08T14:39:28;4.20;;;1.20;;
16832;SDS011;8533;48.426;10.868;2023-03-08T14:42:06;1.53;;;1.30;;
16832;SDS011;8533;48.426;10.868;2023-03-08T14:47:20;1.57;;;1.20;;
16832;SDS011;8533;48.426;10.868;2023-03-08T14:49:59;1.70;;;1.10;;
16832;SDS011;8533;48.426;10.868;2023-03-08T14:52:42;2.03;;;1.10;;
16832;SDS011;8533;48.426;10.868;2023-03-08T14:55:27;1.13;;;0.97;;
16832;SDS011;8533;48.426;10.868;2023-03-08T14:58:00;2.25;;;1.10;;
16832;SDS011;8533;48.426;10.868;2023-03-08T15:00:25;1.10;;;1.10;;
16832;SDS011;8533;48.426;10.868;2023-03-08T15:02:54;2.03;;;1.20;;
16832;SDS011;8533;48.426;10.868;2023-03-08T15:05:23;1.50;;;1.30;;
16832;SDS011;8533;48.426;10.868;2023-03-08T15:07:53;1.53;;;1.20;;
16832;SDS011;8533;48.426;10.868;2023-03-08T15:10:31;2.80;;;1.40;;
16832;SDS011;8533;48.426;10.868;2023-03-08T15:15:32;0.93;;;0.93;;
16832;SDS011;8533;48.426;10.868;2023-03-08T15:18:02;0.90;;;0.90;;
16832;SDS011;8533;48.426;10.868;2023-03-08T15:20:29;2.50;;;1.03;;
16832;SDS011;8533;48.426;10.868;2023-03-08T15:23:00;1.47;;;1.20;;
16832;SDS011;8533;48.426;10.868;2023-03-08T15:25:32;1.10;;;1.00;;
16832;SDS011;8533;48.426;10.868;2023-03-08T15:28:02;1.20;;;1.10;;
16832;SDS011;8533;48.426;10.868;2023-03-08T15:30:30;1.33;;;1.23;;
16832;SDS011;8533;48.426;10.868;2023-03-08T15:32:58;1.93;;;1.23;;
16832;SDS011;8533;48.426;10.868;2023-03-08T15:35:27;1.93;;;1.30;;
16832;SDS011;8533;48.426;10.868;2023-03-08T15:37:56;1.50;;;1.40;;
16832;SDS011;8533;48.426;10.868;2023-03-08T15:40:27;1.23;;;1.13;;
16832;SDS011;8533;48.426;10.868;2023-03-08T15:42:56;3.03;;;1.70;;
16832;SDS011;8533;48.426;10.868;2023-03-08T15:45:25;1.47;;;1.10;;
16832;SDS011;8533;48.426;10.868;2023-03-08T15:48:03;1.90;;;1.20;;
16832;SDS011;8533;48.426;10.868;2023-03-08T15:53:01;1.20;;;1.10;;
16832;SDS011;8533;48.426;10.868;2023-03-08T15:55:28;2.90;;;1.70;;
16832;SDS011;8533;48.426;10.868;2023-03-08T15:57:57;1.07;;;1.00;;
16832;SDS011;8533;48.426;10.868;2023-03-08T16:00:25;1.23;;;1.00;;
16832;SDS011;8533;48.426;10.868;2023-03-08T16:02:53;1.03;;;0.97;;
16832;SDS011;8533;48.426;10.868;2023-03-08T16:05:21;1.00;;;0.93;;
16832;SDS011;8533;48.426;10.868;2023-03-08T16:07:54;1.17;;;1.10;;
16832;SDS011;8533;48.426;10.868;2023-03-08T16:12:51;2.43;;;1.10;;
16832;SDS011;8533;48.426;10.868;2023-03-08T16:15:19;1.50;;;1.13;;
16832;SDS011;8533;48.426;10.868;2023-03-08T16:17:47;1.20;;;1.10;;
16832;SDS011;8533;48.426;10.868;2023-03-08T16:20:15;0.93;;;0.93;;
16832;SDS011;8533;48.426;10.868;2023-03-08T16:22:43;1.63;;;1.43;;
16832;SDS011;8533;48.426;10.868;2023-03-08T16:25:11;1.37;;;1.27;;
16832;SDS011;8533;48.426;10.868;2023-03-08T16:27:39;3.67;;;1.33;;
16832;SDS011;8533;48.426;10.868;2023-03-08T16:30:09;1.70;;;1.40;;
16832;SDS011;8533;48.426;10.868;2023-03-08T16:32:37;1.67;;;1.40;;
16832;SDS011;8533;48.426;10.868;2023-03-08T16:35:05;1.60;;;1.40;;
16832;SDS011;8533;48.426;10.868;2023-03-08T16:37:33;1.30;;;1.20;;
16832;SDS011;8533;48.426;10.868;2023-03-08T16:40:01;1.30;;;1.20;;
16832;SDS011;8533;48.426;10.868;2023-03-08T16:42:30;1.83;;;1.60;;
16832;SDS011;8533;48.426;10.868;2023-03-08T16:44:58;1.93;;;1.30;;
16832;SDS011;8533;48.426;10.868;2023-03-08T16:47:26;1.47;;;1.37;;
16832;SDS011;8533;48.426;10.868;2023-03-08T16:49:56;1.93;;;1.30;;
16832;SDS011;8533;48.426;10.868;2023-03-08T16:52:25;2.43;;;1.50;;
16832;SDS011;8533;48.426;10.868;2023-03-08T16:54:53;3.10;;;1.47;;
16832;SDS011;8533;48.426;10.868;2023-03-08T16:57:21;1.70;;;1.60;;
16832;SDS011;8533;48.426;10.868;2023-03-08T16:59:50;1.73;;;1.50;;
16832;SDS011;8533;48.426;10.868;2023-03-08T17:02:18;1.37;;;1.27;;
16832;SDS011;8533;48.426;10.868;2023-03-08T17:04:47;2.53;;;1.70;;
16832;SDS011;8533;48.426;10.868;2023-03-08T17:07:15;1.97;;;1.60;;
16832;SDS011;8533;48.426;10.868;2023-03-08T17:09:43;1.70;;;1.60;;
16832;SDS011;8533;48.426;10.868;2023-03-08T17:12:10;1.70;;;1.60;;
16832;SDS011;8533;48.426;10.868;2023-03-08T17:14:38;1.40;;;1.30;;